createdAt,value
2022-07-31T00:00:19.638Z,2.83
2022-07-31T00:02:47.000Z,3.09
2022-07-31T00:05:14.283Z,2.96
2022-07-31T00:07:41.532Z,3.07
2022-07-31T00:10:08.781Z,2.81
2022-07-31T00:12:36.048Z,2.75
2022-07-31T00:15:03.305Z,2.97
2022-07-31T00:17:30.576Z,3.03
2022-07-31T00:19:57.828Z,2.77
2022-07-31T00:22:25.074Z,2.93
2022-07-31T00:24:52.338Z,2.75
2022-07-31T00:27:19.591Z,3.02
2022-07-31T00:29:46.836Z,3.02
2022-07-31T00:32:14.075Z,3.18
2022-07-31T00:34:41.348Z,2.88
2022-07-31T00:37:08.596Z,2.79
2022-07-31T00:39:35.874Z,2.87
2022-07-31T00:42:03.122Z,2.85
2022-07-31T00:44:30.374Z,3.20
2022-07-31T00:46:58.906Z,2.93
2022-07-31T00:49:37.406Z,2.88
2022-07-31T00:52:05.291Z,2.88
2022-07-31T00:54:32.547Z,2.99
2022-07-31T00:56:59.890Z,3.08
2022-07-31T00:59:28.071Z,2.73
2022-07-31T01:01:55.325Z,2.94
2022-07-31T01:04:22.592Z,2.94
2022-07-31T01:06:49.892Z,2.70
2022-07-31T01:09:17.133Z,2.62
2022-07-31T01:11:44.383Z,2.84
2022-07-31T01:14:11.656Z,2.89
2022-07-31T01:16:38.906Z,2.61
2022-07-31T01:19:06.149Z,2.96
2022-07-31T01:21:33.423Z,2.79
2022-07-31T01:24:00.690Z,2.86
2022-07-31T01:26:27.934Z,3.01
2022-07-31T01:28:55.203Z,2.92
2022-07-31T01:31:27.307Z,2.83
2022-07-31T01:33:54.830Z,2.99
2022-07-31T01:36:22.098Z,3.01
2022-07-31T01:38:49.371Z,2.78
2022-07-31T01:41:16.611Z,3.08
2022-07-31T01:43:43.876Z,2.67
2022-07-31T01:46:11.130Z,2.70
2022-07-31T01:48:38.380Z,2.90
2022-07-31T01:51:05.654Z,2.57
2022-07-31T01:53:32.892Z,2.92
2022-07-31T01:56:04.063Z,2.68
2022-07-31T01:58:31.661Z,2.78
2022-07-31T02:00:59.641Z,3.02
2022-07-31T02:03:43.692Z,2.88
2022-07-31T02:06:12.455Z,2.78
2022-07-31T02:08:39.732Z,2.84
2022-07-31T02:11:06.979Z,2.91
2022-07-31T02:13:36.157Z,2.76
2022-07-31T02:16:04.927Z,2.89
2022-07-31T02:18:32.319Z,2.96
2022-07-31T02:20:59.581Z,2.92
2022-07-31T02:23:26.892Z,2.84
2022-07-31T02:25:54.170Z,2.90
2022-07-31T02:28:21.418Z,2.70
2022-07-31T02:30:48.661Z,2.79
2022-07-31T02:33:15.917Z,2.70
2022-07-31T02:35:44.063Z,2.73
2022-07-31T02:38:22.156Z,3.03
2022-07-31T02:40:50.906Z,2.82
2022-07-31T02:43:20.134Z,2.96
2022-07-31T02:45:47.376Z,2.93
2022-07-31T02:48:14.656Z,2.86
2022-07-31T02:50:43.891Z,2.66
2022-07-31T02:53:11.136Z,2.85
2022-07-31T02:55:38.409Z,2.76
2022-07-31T02:58:05.661Z,2.94
2022-07-31T03:00:32.997Z,2.87
2022-07-31T03:03:00.308Z,2.86
2022-07-31T03:05:27.557Z,2.72
2022-07-31T03:07:54.798Z,2.75
2022-07-31T03:10:22.071Z,2.91
2022-07-31T03:12:49.312Z,3.03
2022-07-31T03:15:16.578Z,2.95
2022-07-31T03:17:43.837Z,3.11
2022-07-31T03:20:11.076Z,2.98
2022-07-31T03:22:38.370Z,3.18
2022-07-31T03:25:05.599Z,3.06
2022-07-31T03:27:32.866Z,3.07
2022-07-31T03:30:00.162Z,3.02
2022-07-31T03:32:27.426Z,2.97
2022-07-31T03:34:54.680Z,3.08
2022-07-31T03:37:21.911Z,2.93
2022-07-31T03:39:49.171Z,2.87
2022-07-31T03:42:18.976Z,3.02
2022-07-31T03:44:46.588Z,3.09
2022-07-31T03:47:16.481Z,3.02
2022-07-31T03:49:44.147Z,3.02
2022-07-31T03:52:12.612Z,2.75
2022-07-31T03:54:40.182Z,2.77
2022-07-31T03:57:07.450Z,2.95
2022-07-31T03:59:39.181Z,2.77
2022-07-31T04:02:16.531Z,2.83
2022-07-31T04:04:46.174Z,2.82
2022-07-31T04:07:13.470Z,2.92
2022-07-31T04:09:40.704Z,2.97
2022-07-31T04:12:08.112Z,3.15
2022-07-31T04:14:55.378Z,2.92
2022-07-31T04:17:22.616Z,3.11
2022-07-31T04:19:49.875Z,3.13
2022-07-31T04:22:17.149Z,2.96
2022-07-31T04:24:44.394Z,2.77
2022-07-31T04:27:13.001Z,3.12
2022-07-31T04:29:40.378Z,2.95
2022-07-31T04:32:07.815Z,3.11
2022-07-31T04:34:35.107Z,3.26
2022-07-31T04:37:02.364Z,3.32
2022-07-31T04:39:29.604Z,2.90
2022-07-31T04:41:56.850Z,3.13
2022-07-31T04:44:24.168Z,3.13
2022-07-31T04:46:53.416Z,3.09
2022-07-31T04:49:20.780Z,2.89
2022-07-31T04:51:48.091Z,3.23
2022-07-31T04:54:15.353Z,3.16
2022-07-31T04:56:42.587Z,3.24
2022-07-31T04:59:09.847Z,2.99
2022-07-31T05:01:37.194Z,3.11
2022-07-31T05:04:04.636Z,2.88
2022-07-31T05:06:31.873Z,2.82
2022-07-31T05:08:59.104Z,2.80
2022-07-31T05:11:26.375Z,2.79
2022-07-31T05:13:53.602Z,2.53
2022-07-31T05:16:20.851Z,2.92
2022-07-31T05:18:48.244Z,2.76
2022-07-31T05:21:15.495Z,2.63
2022-07-31T05:23:42.743Z,2.57
2022-07-31T05:26:09.999Z,3.12
2022-07-31T05:28:37.260Z,3.01
2022-07-31T05:31:04.509Z,2.81
2022-07-31T05:33:31.755Z,2.78
2022-07-31T05:35:59.026Z,2.81
2022-07-31T05:38:26.263Z,3.17
2022-07-31T05:40:53.499Z,3.25
2022-07-31T05:43:20.827Z,3.05
2022-07-31T05:45:48.156Z,2.69
2022-07-31T05:48:15.413Z,2.83
2022-07-31T05:50:42.648Z,2.54
2022-07-31T05:53:09.891Z,2.38
2022-07-31T05:55:37.153Z,2.81
2022-07-31T05:58:04.416Z,2.83
2022-07-31T06:00:31.648Z,2.76
2022-07-31T06:02:59.636Z,3.08
2022-07-31T06:05:26.896Z,3.04
2022-07-31T06:07:54.474Z,2.73
2022-07-31T06:10:21.758Z,3.13
2022-07-31T06:12:49.030Z,2.95
2022-07-31T06:15:16.263Z,2.78
2022-07-31T06:17:44.181Z,2.92
2022-07-31T06:20:11.994Z,2.94
2022-07-31T06:22:39.246Z,3.01
2022-07-31T06:25:06.521Z,3.14
2022-07-31T06:27:34.948Z,3.10
2022-07-31T06:30:02.522Z,3.06
2022-07-31T06:32:29.810Z,3.05
2022-07-31T06:34:57.122Z,2.85
2022-07-31T06:37:24.371Z,2.81
2022-07-31T06:39:54.832Z,3.20
2022-07-31T06:42:23.745Z,2.95
2022-07-31T06:44:50.983Z,3.00
2022-07-31T06:47:18.253Z,2.84
2022-07-31T06:49:45.583Z,2.92
2022-07-31T06:52:12.875Z,2.99
2022-07-31T06:54:40.119Z,3.27
2022-07-31T06:57:07.385Z,3.10
2022-07-31T06:59:39.568Z,3.01
2022-07-31T07:02:08.097Z,3.04
2022-07-31T07:04:57.371Z,2.92
2022-07-31T07:07:24.767Z,2.96
2022-07-31T07:09:58.949Z,3.24
2022-07-31T07:12:26.823Z,3.05
2022-07-31T07:14:54.216Z,3.07
2022-07-31T07:17:24.790Z,3.19
2022-07-31T07:19:54.722Z,3.11
2022-07-31T07:22:31.277Z,3.16
2022-07-31T07:24:59.424Z,3.03
2022-07-31T07:27:26.675Z,3.03
2022-07-31T07:29:53.975Z,2.93
2022-07-31T07:32:21.320Z,2.98
2022-07-31T07:35:00.218Z,3.19
2022-07-31T07:37:27.827Z,3.42
2022-07-31T07:39:55.071Z,3.07
2022-07-31T07:42:22.304Z,3.46
2022-07-31T07:44:49.578Z,3.37
2022-07-31T07:47:16.830Z,3.49
2022-07-31T07:49:44.090Z,3.37
2022-07-31T07:52:11.563Z,3.40
2022-07-31T07:54:39.053Z,3.49
2022-07-31T07:57:06.316Z,3.50
2022-07-31T07:59:33.583Z,3.41
2022-07-31T08:02:00.953Z,3.74
2022-07-31T08:04:28.306Z,3.40
2022-07-31T08:06:55.666Z,3.34
2022-07-31T08:09:22.911Z,3.08
2022-07-31T08:11:50.143Z,3.22
2022-07-31T08:14:17.421Z,3.38
2022-07-31T08:16:44.660Z,3.27
2022-07-31T08:19:11.914Z,3.15
2022-07-31T08:21:39.182Z,3.25
2022-07-31T08:24:06.421Z,3.20
2022-07-31T08:26:33.777Z,3.24
2022-07-31T08:29:05.143Z,3.20
2022-07-31T08:31:35.065Z,2.87
2022-07-31T08:34:02.325Z,2.76
2022-07-31T08:36:29.574Z,2.67
2022-07-31T08:38:56.835Z,2.63
2022-07-31T08:41:24.109Z,2.91
2022-07-31T08:44:01.751Z,3.05
2022-07-31T08:46:30.743Z,2.72
2022-07-31T08:48:58.059Z,2.93
2022-07-31T08:51:25.392Z,3.06
2022-07-31T08:53:52.636Z,2.93
2022-07-31T08:56:19.886Z,3.25
2022-07-31T08:58:47.146Z,3.22
2022-07-31T09:01:14.435Z,3.05
2022-07-31T09:03:41.745Z,2.83
2022-07-31T09:06:09.009Z,2.65
2022-07-31T09:08:36.495Z,2.64
2022-07-31T09:11:04.194Z,2.98
2022-07-31T09:13:33.415Z,2.57
2022-07-31T09:16:00.664Z,2.76
2022-07-31T09:18:27.915Z,2.83
2022-07-31T09:20:55.156Z,2.83
2022-07-31T09:23:22.422Z,2.74
2022-07-31T09:25:50.223Z,2.87
2022-07-31T09:28:22.027Z,2.69
2022-07-31T09:30:56.304Z,2.63
2022-07-31T09:33:24.172Z,2.68
2022-07-31T09:35:51.421Z,2.29
2022-07-31T09:38:21.208Z,2.51
2022-07-31T09:40:55.234Z,2.61
2022-07-31T09:43:31.404Z,2.66
2022-07-31T09:45:59.068Z,2.61
2022-07-31T09:48:28.575Z,2.65
2022-07-31T09:50:56.246Z,2.57
2022-07-31T09:53:23.514Z,2.73
2022-07-31T09:55:50.792Z,2.74
2022-07-31T09:58:18.046Z,2.68
2022-07-31T10:00:45.363Z,2.77
2022-07-31T10:03:12.658Z,2.48
2022-07-31T10:05:39.913Z,2.69
2022-07-31T10:08:07.185Z,2.88
2022-07-31T10:10:34.423Z,2.80
2022-07-31T10:13:01.671Z,2.88
2022-07-31T10:15:28.937Z,2.75
2022-07-31T10:17:56.198Z,2.69
2022-07-31T10:20:23.457Z,2.72
2022-07-31T10:22:50.808Z,2.77
2022-07-31T10:25:20.041Z,2.47
2022-07-31T10:27:47.302Z,2.44
2022-07-31T10:30:14.595Z,2.49
2022-07-31T10:32:41.900Z,2.65
2022-07-31T10:35:09.208Z,2.53
2022-07-31T10:37:36.469Z,2.53
2022-07-31T10:40:03.722Z,2.47
2022-07-31T10:42:30.984Z,2.16
2022-07-31T10:44:58.259Z,2.38
2022-07-31T10:47:25.522Z,2.33
2022-07-31T10:49:52.771Z,2.29
2022-07-31T10:52:20.039Z,2.25
2022-07-31T10:54:47.347Z,2.55
2022-07-31T10:57:14.611Z,2.36
2022-07-31T10:59:44.773Z,2.21
2022-07-31T11:02:12.345Z,2.22
2022-07-31T11:04:39.662Z,2.13
2022-07-31T11:07:07.108Z,2.34
2022-07-31T11:09:51.188Z,2.14
2022-07-31T11:12:19.083Z,2.30
2022-07-31T11:14:46.324Z,2.26
2022-07-31T11:17:13.614Z,2.28
2022-07-31T11:19:43.408Z,2.61
2022-07-31T11:22:32.144Z,2.56
2022-07-31T11:24:58.129Z,2.39
2022-07-31T11:27:25.381Z,2.47
2022-07-31T11:29:59.752Z,2.66
2022-07-31T11:32:31.297Z,2.44
2022-07-31T11:34:58.533Z,2.68
2022-07-31T11:37:25.860Z,2.73
2022-07-31T11:39:53.220Z,2.21
2022-07-31T11:42:20.459Z,2.53
2022-07-31T11:44:53.860Z,2.66
2022-07-31T11:48:10.128Z,2.38
2022-07-31T11:50:08.336Z,2.48
2022-07-31T11:52:37.293Z,2.61
2022-07-31T11:55:09.080Z,2.59
2022-07-31T11:57:52.451Z,2.54
2022-07-31T12:00:24.791Z,2.69
2022-07-31T12:02:57.195Z,2.44
2022-07-31T12:05:38.812Z,2.34
2022-07-31T12:08:06.653Z,2.50
2022-07-31T12:10:33.914Z,2.52
2022-07-31T12:13:01.163Z,2.57
2022-07-31T12:15:28.416Z,2.61
2022-07-31T12:17:55.652Z,2.68
2022-07-31T12:20:34.966Z,2.69
2022-07-31T12:23:03.388Z,3.05
2022-07-31T12:25:30.663Z,2.94
2022-07-31T12:27:57.893Z,2.77
2022-07-31T12:30:29.631Z,2.84
2022-07-31T12:32:57.362Z,2.74
2022-07-31T12:35:26.615Z,2.84
2022-07-31T12:38:37.706Z,2.47
2022-07-31T12:41:03.029Z,2.38
2022-07-31T12:43:30.297Z,2.70
2022-07-31T12:45:57.546Z,2.73
2022-07-31T12:48:25.021Z,2.51
2022-07-31T12:50:52.260Z,2.42
2022-07-31T12:53:19.491Z,2.45
2022-07-31T12:55:46.754Z,2.60
2022-07-31T12:58:13.997Z,2.50
2022-07-31T13:00:41.246Z,2.49
2022-07-31T13:03:08.517Z,2.33
2022-07-31T13:05:35.774Z,2.63
2022-07-31T13:08:03.030Z,2.59
2022-07-31T13:10:32.344Z,2.42
2022-07-31T13:12:59.821Z,2.56
2022-07-31T13:15:27.159Z,2.42
2022-07-31T13:17:54.432Z,2.95
2022-07-31T13:20:21.668Z,2.52
2022-07-31T13:22:49.015Z,2.47
2022-07-31T13:25:16.264Z,2.68
2022-07-31T13:27:43.505Z,2.73
2022-07-31T13:30:10.785Z,2.64
2022-07-31T13:32:38.197Z,2.40
2022-07-31T13:35:23.562Z,2.45
2022-07-31T13:37:52.711Z,2.59
2022-07-31T13:40:19.955Z,2.48
2022-07-31T13:42:47.204Z,2.30
2022-07-31T13:45:16.474Z,2.32
2022-07-31T13:47:50.621Z,2.23
2022-07-31T13:50:19.214Z,2.41
2022-07-31T13:52:46.517Z,2.36
2022-07-31T13:55:13.778Z,2.41
2022-07-31T13:57:41.143Z,2.41
2022-07-31T14:00:08.384Z,2.24
2022-07-31T14:02:35.667Z,2.20
2022-07-31T14:05:02.986Z,2.63
2022-07-31T14:07:45.365Z,2.35
2022-07-31T14:10:20.616Z,2.33
2022-07-31T14:12:48.335Z,2.35
2022-07-31T14:15:15.567Z,2.13
2022-07-31T14:17:46.827Z,2.41
2022-07-31T14:20:14.782Z,2.49
2022-07-31T14:22:42.019Z,2.42
2022-07-31T14:25:09.293Z,2.19
2022-07-31T14:27:36.527Z,2.40
2022-07-31T14:30:03.830Z,2.42
2022-07-31T14:32:31.129Z,2.56
2022-07-31T14:34:58.442Z,2.31
2022-07-31T14:37:25.675Z,2.53
2022-07-31T14:39:52.921Z,2.58
2022-07-31T14:42:22.054Z,2.50
2022-07-31T14:44:54.642Z,2.52
2022-07-31T14:47:21.909Z,2.65
2022-07-31T14:50:09.552Z,2.62
2022-07-31T14:52:36.381Z,2.49
2022-07-31T14:55:03.627Z,2.82
2022-07-31T14:57:30.868Z,2.63
2022-07-31T14:59:58.142Z,2.50
2022-07-31T15:02:25.390Z,2.41
2022-07-31T15:04:52.660Z,2.39
2022-07-31T15:07:38.483Z,2.32
2022-07-31T15:10:07.107Z,2.81
2022-07-31T15:12:34.372Z,3.08
2022-07-31T15:15:01.666Z,2.46
2022-07-31T15:17:30.929Z,2.48
2022-07-31T15:19:58.224Z,2.41
2022-07-31T15:22:25.476Z,2.50
2022-07-31T15:24:52.732Z,2.28
2022-07-31T15:27:20.010Z,2.29
2022-07-31T15:30:03.452Z,2.29
2022-07-31T15:32:34.497Z,2.21
2022-07-31T15:35:01.750Z,2.31
2022-07-31T15:37:29.017Z,2.51
2022-07-31T15:40:02.348Z,2.70
2022-07-31T15:42:30.446Z,2.61
2022-07-31T15:44:57.695Z,2.52
2022-07-31T15:47:25.060Z,2.50
2022-07-31T15:49:54.300Z,2.47
2022-07-31T15:52:21.554Z,2.59
2022-07-31T15:54:51.483Z,2.54
2022-07-31T15:57:19.570Z,2.44
2022-07-31T15:59:46.830Z,2.53
2022-07-31T16:02:16.098Z,2.43
2022-07-31T16:04:52.933Z,2.24
2022-07-31T16:08:28.600Z,2.63
2022-07-31T16:10:16.679Z,2.32
2022-07-31T16:12:44.629Z,2.48
2022-07-31T16:15:11.864Z,2.55
2022-07-31T16:17:39.103Z,2.44
2022-07-31T16:20:06.373Z,2.39
2022-07-31T16:22:33.621Z,2.44
2022-07-31T16:25:00.865Z,2.36
2022-07-31T16:27:28.139Z,2.29
2022-07-31T16:29:59.042Z,2.29
2022-07-31T16:32:29.466Z,2.56
2022-07-31T16:35:00.570Z,2.35
2022-07-31T16:37:51.164Z,2.45
2022-07-31T16:40:30.146Z,2.23
2022-07-31T16:43:01.169Z,2.48
2022-07-31T16:45:28.565Z,2.19
2022-07-31T16:47:55.807Z,2.35
2022-07-31T16:50:23.062Z,2.52
2022-07-31T16:52:54.614Z,2.74
2022-07-31T16:55:55.834Z,2.29
2022-07-31T16:58:09.658Z,2.63
2022-07-31T17:00:36.947Z,2.59
2022-07-31T17:03:04.238Z,2.47
2022-07-31T17:05:31.487Z,2.45
2022-07-31T17:07:58.765Z,2.54
2022-07-31T17:10:27.001Z,2.46
2022-07-31T17:12:54.432Z,3.43
2022-07-31T17:15:21.676Z,2.95
2022-07-31T17:17:48.942Z,2.47
2022-07-31T17:20:16.201Z,2.21
2022-07-31T17:22:43.589Z,2.49
2022-07-31T17:25:10.885Z,2.47
2022-07-31T17:27:38.138Z,2.50
2022-07-31T17:30:05.531Z,2.57
2022-07-31T17:32:35.240Z,2.53
2022-07-31T17:35:02.501Z,2.72
2022-07-31T17:37:29.763Z,2.63
2022-07-31T17:39:59.031Z,2.44
2022-07-31T17:42:26.320Z,2.37
2022-07-31T17:44:55.131Z,2.50
2022-07-31T17:47:22.993Z,2.36
2022-07-31T17:49:50.251Z,2.52
2022-07-31T17:52:17.503Z,2.55
2022-07-31T17:54:44.770Z,2.60
2022-07-31T17:57:12.044Z,2.62
2022-07-31T17:59:39.894Z,2.64
2022-07-31T18:02:07.317Z,2.43
2022-07-31T18:04:35.146Z,2.51
2022-07-31T18:07:02.470Z,2.59
2022-07-31T18:09:29.713Z,3.32
2022-07-31T18:11:57.160Z,2.96
2022-07-31T18:14:25.014Z,2.73
2022-07-31T18:16:52.426Z,2.74
2022-07-31T18:19:19.705Z,4.03
2022-07-31T18:21:46.966Z,4.30
2022-07-31T18:24:14.226Z,4.32
2022-07-31T18:26:41.492Z,3.19
2022-07-31T18:29:08.733Z,2.92
2022-07-31T18:31:36.257Z,2.86
2022-07-31T18:34:03.659Z,3.42
2022-07-31T18:36:30.922Z,3.04
2022-07-31T18:38:58.395Z,2.94
2022-07-31T18:41:25.705Z,2.79
2022-07-31T18:43:52.960Z,2.81
2022-07-31T18:46:20.226Z,2.35
2022-07-31T18:48:50.751Z,2.45
2022-07-31T18:51:21.880Z,2.43
2022-07-31T18:53:49.259Z,2.73
2022-07-31T18:56:16.500Z,2.85
2022-07-31T18:58:43.736Z,2.72
2022-07-31T19:01:11.013Z,2.97
2022-07-31T19:03:38.251Z,3.00
2022-07-31T19:06:05.526Z,2.72
2022-07-31T19:08:32.803Z,2.93
2022-07-31T19:11:00.162Z,2.97
2022-07-31T19:13:27.422Z,2.68
2022-07-31T19:15:54.662Z,2.80
2022-07-31T19:18:25.760Z,2.54
2022-07-31T19:20:58.953Z,2.53
2022-07-31T19:23:44.900Z,2.58
2022-07-31T19:26:12.142Z,2.59
2022-07-31T19:28:39.386Z,2.55
2022-07-31T19:31:06.657Z,2.55
2022-07-31T19:33:33.902Z,2.70
2022-07-31T19:36:02.647Z,2.50
2022-07-31T19:38:31.311Z,2.61
2022-07-31T19:40:58.576Z,2.73
2022-07-31T19:43:25.831Z,2.86
2022-07-31T19:46:10.225Z,2.65
2022-07-31T19:48:39.407Z,2.89
2022-07-31T19:51:06.660Z,2.82
2022-07-31T19:53:33.905Z,2.94
2022-07-31T19:56:01.139Z,2.78
2022-07-31T19:58:28.407Z,2.70
2022-07-31T20:00:55.670Z,2.99
2022-07-31T20:03:22.966Z,2.77
2022-07-31T20:05:50.267Z,3.03
2022-07-31T20:08:17.507Z,3.03
2022-07-31T20:10:46.783Z,3.15
2022-07-31T20:13:14.037Z,3.08
2022-07-31T20:15:52.488Z,3.37
2022-07-31T20:18:26.854Z,3.18
2022-07-31T20:20:56.911Z,2.97
2022-07-31T20:23:24.390Z,3.16
2022-07-31T20:25:51.650Z,2.97
2022-07-31T20:28:18.929Z,3.04
2022-07-31T20:30:46.208Z,2.94
2022-07-31T20:33:13.662Z,2.91
2022-07-31T20:35:48.051Z,3.03
2022-07-31T20:38:16.791Z,2.89
2022-07-31T20:40:49.939Z,3.01
2022-07-31T20:43:21.294Z,2.95
2022-07-31T20:45:48.563Z,2.93
2022-07-31T20:48:15.825Z,3.00
2022-07-31T20:50:43.109Z,2.97
2022-07-31T20:53:16.955Z,2.87
2022-07-31T20:55:44.223Z,2.66
2022-07-31T20:58:11.459Z,2.89
2022-07-31T21:00:39.176Z,3.04
2022-07-31T21:03:07.144Z,2.83
2022-07-31T21:05:34.391Z,2.99
2022-07-31T21:08:01.662Z,2.93
2022-07-31T21:10:29.836Z,3.05
2022-07-31T21:12:57.602Z,2.91
2022-07-31T21:15:42.144Z,3.10
2022-07-31T21:18:11.968Z,3.06
2022-07-31T21:20:51.228Z,3.36
2022-07-31T21:23:20.649Z,2.80
2022-07-31T21:25:47.895Z,3.04
2022-07-31T21:28:15.147Z,2.91
2022-07-31T21:30:42.446Z,3.08
2022-07-31T21:33:09.744Z,3.11
2022-07-31T21:35:37.693Z,2.98
2022-07-31T21:38:06.059Z,3.12
2022-07-31T21:40:37.867Z,3.10
2022-07-31T21:43:05.117Z,3.10
2022-07-31T21:45:49.730Z,3.29
2022-07-31T21:48:19.841Z,3.14
2022-07-31T21:50:47.126Z,3.10
2022-07-31T21:53:14.386Z,2.84
2022-07-31T21:55:41.647Z,3.21
2022-07-31T21:58:08.905Z,3.15
2022-07-31T22:00:36.158Z,2.99
2022-07-31T22:03:03.787Z,2.88
2022-07-31T22:05:31.074Z,2.76
2022-07-31T22:07:58.408Z,2.74
2022-07-31T22:10:25.687Z,2.89
2022-07-31T22:12:58.967Z,2.74
2022-07-31T22:15:26.230Z,2.81
2022-07-31T22:18:13.567Z,3.12
2022-07-31T22:20:40.814Z,3.01
2022-07-31T22:23:08.066Z,2.90
2022-07-31T22:25:35.326Z,2.82
2022-07-31T22:28:06.023Z,3.17
2022-07-31T22:30:33.297Z,3.00
2022-07-31T22:33:00.566Z,2.89
2022-07-31T22:35:27.865Z,3.01
2022-07-31T22:37:55.330Z,2.80
2022-07-31T22:40:22.619Z,2.95
2022-07-31T22:42:56.076Z,3.25
2022-07-31T22:45:24.230Z,3.07
2022-07-31T22:47:51.587Z,2.96
2022-07-31T22:50:18.871Z,3.18
2022-07-31T22:52:46.182Z,2.99
2022-07-31T22:55:13.465Z,2.96
2022-07-31T22:57:40.761Z,3.12
2022-07-31T23:00:08.083Z,3.05
2022-07-31T23:02:35.424Z,2.93
2022-07-31T23:05:02.744Z,3.06
2022-07-31T23:07:30.011Z,3.12
2022-07-31T23:09:57.360Z,3.01
2022-07-31T23:12:28.281Z,3.18
2022-07-31T23:14:56.803Z,3.04
2022-07-31T23:17:24.077Z,2.85
2022-07-31T23:19:54.054Z,2.84
2022-07-31T23:22:30.737Z,3.00
2022-07-31T23:25:00.877Z,2.92
2022-07-31T23:27:28.136Z,3.02
2022-07-31T23:29:55.817Z,2.92
2022-07-31T23:32:23.069Z,2.86
2022-07-31T23:34:50.333Z,2.86
2022-07-31T23:37:17.597Z,3.01
2022-07-31T23:39:44.957Z,2.90
2022-07-31T23:42:12.337Z,3.07
2022-07-31T23:44:40.986Z,2.92
2022-07-31T23:47:09.880Z,3.03
2022-07-31T23:49:43.274Z,2.93
2022-07-31T23:52:10.517Z,2.71
2022-07-31T23:54:37.948Z,2.72
2022-07-31T23:57:05.305Z,2.91
2022-07-31T23:59:32.568Z,2.87
